Eden, Vermont
Current Conditions -  °F | °C
As of 2:35 AM on Wednesday 26 Nov 2014 (Local Time) from KEFK Reporting Station
Broken Clouds Broken Clouds  
Wind Chill: 34°   Ceiling: 4000
Heat Index: 34°   Visibility: 10mi
Dew Point: 21°   Wind: 0mph
Humidity: 57%   Direction: NA
Pressure: 30.16"   Gusts: NA
Location:  44.71°N, 72.55°W
Report Text: KEFK 260735Z AUTO 00000KT 10SM BKN040 BKN046 01/M06 A3016 RMK AO2 T00131063
Loading
Personal Weather Stations






























Interactive Weather Map New forecast layout! Learn more

10-Day Weather Forecast

Advertisements
Track Severe Weather on mobile